createdAt,value
2022-11-10T00:01:33.285Z,52.75
2022-11-10T00:04:06.763Z,53.50
2022-11-10T00:06:45.613Z,50.00
2022-11-10T00:09:19.406Z,53.50
2022-11-10T00:11:49.996Z,49.00
2022-11-10T00:14:20.733Z,52.50
2022-11-10T00:16:54.472Z,50.25
2022-11-10T00:19:26.655Z,51.50
2022-11-10T00:21:58.186Z,46.00
2022-11-10T00:24:29.562Z,43.25
2022-11-10T00:27:03.621Z,50.25
2022-11-10T00:29:34.972Z,54.50
2022-11-10T00:32:05.513Z,49.50
2022-11-10T00:34:35.850Z,50.25
2022-11-10T00:37:08.095Z,49.75
2022-11-10T00:39:41.080Z,50.00
2022-11-10T00:42:24.349Z,48.50
2022-11-10T00:44:47.524Z,43.50
2022-11-10T00:47:18.237Z,48.75
2022-11-10T00:49:48.931Z,48.00
2022-11-10T00:52:20.748Z,50.25
2022-11-10T00:54:51.151Z,38.25
2022-11-10T00:57:26.069Z,37.50
2022-11-10T00:59:58.758Z,47.25
2022-11-10T01:02:29.533Z,43.00
2022-11-10T01:05:01.428Z,40.00
2022-11-10T01:07:33.127Z,46.00
2022-11-10T01:10:16.643Z,40.75
2022-11-10T01:12:46.996Z,51.50
2022-11-10T01:15:23.054Z,47.25
2022-11-10T01:17:54.188Z,47.50
2022-11-10T01:20:25.506Z,50.00
2022-11-10T01:22:57.526Z,53.25
2022-11-10T01:25:27.763Z,48.00
2022-11-10T01:27:58.860Z,50.50
2022-11-10T01:30:29.660Z,54.50
2022-11-10T01:33:00.665Z,47.00
2022-11-10T01:35:31.658Z,47.75
2022-11-10T01:38:02.488Z,40.75
2022-11-10T01:40:33.182Z,44.00
2022-11-10T01:43:03.984Z,42.75
2022-11-10T01:45:37.592Z,26.00
2022-11-10T01:48:10.299Z,41.50
2022-11-10T01:50:43.070Z,48.25
2022-11-10T01:53:16.929Z,47.75
2022-11-10T01:55:50.053Z,44.75
2022-11-10T01:58:23.411Z,42.00
2022-11-10T02:00:54.810Z,45.75
2022-11-10T02:03:28.145Z,40.50
2022-11-10T02:05:59.205Z,47.25
2022-11-10T02:08:30.659Z,47.75
2022-11-10T02:11:01.250Z,43.75
2022-11-10T02:13:32.227Z,41.25
2022-11-10T02:16:02.840Z,41.75
2022-11-10T02:18:33.287Z,50.75
2022-11-10T02:21:06.012Z,35.75
2022-11-10T02:23:39.873Z,46.25
2022-11-10T02:26:10.347Z,51.00
2022-11-10T02:28:40.781Z,49.75
2022-11-10T02:31:11.660Z,45.75
2022-11-10T02:33:42.478Z,46.25
2022-11-10T02:36:12.992Z,47.50
2022-11-10T02:38:43.437Z,48.75
2022-11-10T02:41:13.752Z,44.50
2022-11-10T02:43:45.444Z,44.25
2022-11-10T02:46:15.772Z,32.75
2022-11-10T02:48:46.294Z,45.50
2022-11-10T02:51:16.670Z,48.00
2022-11-10T02:53:47.650Z,47.25
2022-11-10T02:56:18.030Z,45.25
2022-11-10T02:58:49.549Z,43.00
2022-11-10T03:01:19.841Z,42.00
2022-11-10T03:03:50.545Z,37.50
2022-11-10T03:06:21.060Z,49.75
2022-11-10T03:08:51.996Z,45.25
2022-11-10T03:11:22.446Z,41.25
2022-11-10T03:14:01.518Z,43.00
2022-11-10T03:16:25.705Z,44.75
2022-11-10T03:18:56.450Z,43.00
2022-11-10T03:21:26.979Z,45.75
2022-11-10T03:23:57.336Z,45.50
2022-11-10T03:26:27.626Z,41.50
2022-11-10T03:28:58.163Z,41.75
2022-11-10T03:31:28.727Z,46.00
2022-11-10T03:33:58.929Z,40.25
2022-11-10T03:36:29.298Z,45.00
2022-11-10T03:38:59.612Z,46.25
2022-11-10T03:41:30.117Z,44.50
2022-11-10T03:44:00.976Z,44.00
2022-11-10T03:46:31.268Z,44.50
2022-11-10T03:49:01.821Z,39.75
2022-11-10T03:51:32.181Z,45.50
2022-11-10T03:54:02.518Z,46.50
2022-11-10T03:56:33.130Z,45.75
2022-11-10T03:59:03.703Z,44.50
2022-11-10T04:01:34.009Z,43.50
2022-11-10T04:04:04.849Z,42.75
2022-11-10T04:06:35.948Z,41.00
2022-11-10T04:09:07.077Z,30.50
2022-11-10T04:11:37.711Z,27.25
2022-11-10T04:14:08.396Z,41.75
2022-11-10T04:16:38.785Z,40.00
2022-11-10T04:19:09.126Z,34.25
2022-11-10T04:21:39.540Z,45.50
2022-11-10T04:24:10.097Z,35.00
2022-11-10T04:26:41.853Z,41.50
2022-11-10T04:29:13.473Z,33.25
2022-11-10T04:31:44.163Z,47.25
2022-11-10T04:34:16.069Z,39.00
2022-11-10T04:39:30.480Z,39.25
2022-11-10T04:42:02.885Z,54.75
2022-11-10T04:44:34.109Z,30.75
2022-11-10T04:47:07.717Z,42.50
2022-11-10T04:49:37.047Z,29.00
2022-11-10T04:52:07.527Z,41.25
2022-11-10T04:54:38.541Z,42.75
2022-11-10T04:57:08.856Z,40.75
2022-11-10T04:59:39.773Z,35.50
2022-11-10T05:02:10.091Z,40.50
2022-11-10T05:04:41.144Z,41.25
2022-11-10T05:07:11.625Z,29.00
2022-11-10T05:09:43.137Z,45.00
2022-11-10T05:12:16.254Z,38.50
2022-11-10T05:14:46.032Z,37.00
2022-11-10T05:17:16.438Z,36.00
2022-11-10T05:19:46.944Z,16.75
2022-11-10T05:22:17.560Z,34.00
2022-11-10T05:24:48.047Z,36.25
2022-11-10T05:27:18.920Z,35.50
2022-11-10T05:29:49.669Z,45.00
2022-11-10T05:32:20.404Z,39.25
2022-11-10T05:34:50.771Z,35.50
2022-11-10T05:40:00.366Z,36.75
2022-11-10T05:42:30.692Z,38.25
2022-11-10T05:45:02.260Z,35.50
2022-11-10T05:47:32.710Z,35.00
2022-11-10T05:50:03.531Z,32.25
2022-11-10T05:52:34.108Z,33.75
2022-11-10T05:55:04.824Z,32.00
2022-11-10T05:57:35.159Z,30.75
2022-11-10T06:00:06.621Z,28.50
2022-11-10T06:02:37.069Z,30.00
2022-11-10T06:05:08.466Z,32.75
2022-11-10T06:07:39.477Z,29.67
2022-11-10T06:10:24.784Z,35.00
2022-11-10T06:12:42.774Z,26.25
2022-11-10T06:15:14.495Z,39.00
2022-11-10T06:17:46.677Z,34.25
2022-11-10T06:20:20.738Z,34.75
2022-11-10T06:23:21.634Z,31.50
2022-11-10T06:25:52.406Z,31.00
2022-11-10T06:28:24.170Z,35.50
2022-11-10T06:31:02.230Z,34.75
2022-11-10T06:33:36.661Z,30.00
2022-11-10T06:36:14.990Z,32.75
2022-11-10T06:39:01.643Z,36.00
2022-11-10T06:41:40.336Z,31.50
2022-11-10T06:44:10.663Z,35.75
2022-11-10T06:46:42.516Z,29.50
2022-11-10T06:49:14.613Z,40.75
2022-11-10T06:51:45.574Z,34.50
2022-11-10T06:54:18.591Z,41.00
2022-11-10T06:56:51.211Z,41.25
2022-11-10T07:02:18.060Z,41.25
2022-11-10T07:08:14.627Z,50.25
2022-11-10T07:10:51.345Z,45.25
2022-11-10T07:13:57.660Z,42.50
2022-11-10T07:16:26.357Z,38.50
2022-11-10T07:19:13.936Z,45.50
2022-11-10T07:21:53.002Z,46.25
2022-11-10T07:24:59.732Z,43.25
2022-11-10T07:30:17.431Z,37.25
2022-11-10T07:32:50.657Z,48.00
2022-11-10T07:35:22.481Z,45.50
2022-11-10T07:37:53.657Z,42.25
2022-11-10T07:40:24.616Z,39.50
2022-11-10T07:42:55.049Z,43.50
2022-11-10T07:45:26.158Z,34.75
2022-11-10T07:48:12.105Z,46.00
2022-11-10T07:50:43.237Z,39.75
2022-11-10T07:53:16.670Z,36.50
2022-11-10T07:55:47.548Z,36.00
2022-11-10T07:58:19.067Z,31.50
2022-11-10T08:00:49.307Z,35.00
2022-11-10T08:03:22.031Z,38.25
2022-11-10T08:05:54.496Z,30.50
2022-11-10T08:08:24.777Z,33.75
2022-11-10T08:10:58.065Z,35.75
2022-11-10T08:13:28.630Z,40.00
2022-11-10T08:15:59.586Z,37.25
2022-11-10T08:18:35.238Z,39.00
2022-11-10T08:21:06.210Z,38.25
2022-11-10T08:23:36.633Z,39.25
2022-11-10T08:26:06.996Z,38.50
2022-11-10T08:28:37.599Z,36.00
2022-11-10T08:31:08.503Z,31.75
2022-11-10T08:33:38.893Z,38.00
2022-11-10T08:36:10.462Z,40.00
2022-11-10T08:38:40.759Z,36.50
2022-11-10T08:41:11.478Z,37.75
2022-11-10T08:43:44.310Z,40.25
2022-11-10T08:46:14.713Z,39.00
2022-11-10T08:48:45.195Z,40.50
2022-11-10T08:51:15.372Z,41.00
2022-11-10T08:53:46.848Z,40.25
2022-11-10T08:56:17.003Z,38.75
2022-11-10T08:58:53.006Z,40.75
2022-11-10T09:01:20.871Z,52.50
2022-11-10T09:03:51.199Z,60.25
2022-11-10T09:06:21.629Z,83.00
2022-11-10T09:08:51.791Z,57.50
2022-11-10T09:11:31.927Z,68.25
2022-11-10T09:14:32.130Z,66.50
2022-11-10T09:20:27.385Z,63.75
2022-11-10T09:26:33.374Z,58.75
2022-11-10T09:29:03.889Z,51.00
2022-11-10T09:31:34.976Z,58.75
2022-11-10T09:34:08.192Z,56.00
2022-11-10T09:36:39.386Z,50.75
2022-11-10T09:39:10.007Z,47.25
2022-11-10T09:41:44.113Z,43.00
2022-11-10T09:44:31.341Z,44.75
2022-11-10T09:47:07.017Z,44.00
2022-11-10T09:49:52.213Z,50.00
2022-11-10T09:52:24.868Z,39.75
2022-11-10T09:55:01.618Z,40.75
2022-11-10T09:57:32.803Z,41.75
2022-11-10T10:00:05.054Z,42.50
2022-11-10T10:02:46.268Z,37.25
2022-11-10T10:05:45.294Z,41.50
2022-11-10T10:08:27.040Z,33.25
2022-11-10T10:11:25.390Z,35.50
2022-11-10T10:14:22.435Z,28.25
2022-11-10T10:16:56.292Z,31.75
2022-11-10T10:19:42.009Z,27.00
2022-11-10T10:22:41.331Z,34.25
2022-11-10T10:25:26.962Z,40.50
2022-11-10T10:28:24.890Z,38.75
2022-11-10T10:31:31.312Z,39.25
2022-11-10T10:37:30.853Z,38.75
2022-11-10T10:40:25.508Z,43.50
2022-11-10T10:44:12.781Z,43.25
2022-11-10T10:45:40.769Z,44.75
2022-11-10T10:48:05.284Z,42.75
2022-11-10T10:53:27.909Z,48.25
2022-11-10T10:56:00.916Z,45.25
2022-11-10T10:58:41.815Z,46.50
2022-11-10T11:01:18.460Z,42.25
2022-11-10T11:03:53.263Z,44.25
2022-11-10T11:06:31.953Z,40.25
2022-11-10T11:09:18.917Z,42.50
2022-11-10T11:12:10.932Z,39.00
2022-11-10T11:14:51.704Z,43.75
2022-11-10T11:17:25.009Z,44.75
2022-11-10T11:20:00.137Z,39.00
2022-11-10T11:25:47.861Z,42.50
2022-11-10T11:28:41.568Z,44.25
2022-11-10T11:31:45.086Z,46.00
2022-11-10T11:34:31.598Z,42.00
2022-11-10T11:37:16.594Z,48.00
2022-11-10T11:39:50.182Z,40.25
2022-11-10T11:42:33.971Z,40.00
2022-11-10T11:45:23.919Z,42.50
2022-11-10T11:48:14.821Z,47.00
2022-11-10T11:51:15.276Z,46.00
2022-11-10T11:54:16.985Z,43.00
2022-11-10T11:56:50.031Z,42.25
2022-11-10T11:59:28.881Z,42.50
2022-11-10T12:05:08.852Z,42.00
2022-11-10T12:08:03.620Z,42.75
2022-11-10T12:11:13.196Z,42.00
2022-11-10T12:14:06.448Z,41.00
2022-11-10T12:16:47.897Z,44.50
2022-11-10T12:19:41.807Z,45.25
2022-11-10T12:22:15.175Z,41.50
2022-11-10T12:25:12.717Z,42.50
2022-11-10T12:27:49.300Z,42.50
2022-11-10T12:30:31.191Z,43.50
2022-11-10T12:33:20.866Z,45.25
2022-11-10T12:35:54.063Z,39.75
2022-11-10T12:41:51.060Z,36.00
2022-11-10T12:44:40.546Z,41.75
2022-11-10T12:47:13.299Z,42.50
2022-11-10T12:49:46.559Z,43.75
2022-11-10T12:52:19.977Z,45.75
2022-11-10T12:54:50.277Z,46.25
2022-11-10T12:57:29.017Z,39.50
2022-11-10T13:00:15.333Z,44.25
2022-11-10T13:02:46.582Z,46.25
2022-11-10T13:05:43.909Z,45.75
2022-11-10T13:08:20.365Z,46.50
2022-11-10T13:10:56.334Z,42.25
2022-11-10T13:13:28.766Z,46.50
2022-11-10T15:05:56.621Z,47.00
2022-11-10T15:08:28.948Z,45.25
2022-11-10T15:11:02.575Z,41.33
2022-11-10T15:14:04.465Z,39.00
2022-11-10T15:26:04.989Z,49.25
2022-11-10T15:37:49.121Z,50.25
2022-11-10T15:40:48.142Z,47.75
2022-11-10T15:43:40.445Z,50.00
2022-11-10T15:46:18.208Z,48.00
2022-11-10T15:48:59.788Z,48.00
2022-11-10T16:03:36.073Z,59.00
2022-11-10T16:09:23.086Z,39.75
2022-11-10T16:11:55.931Z,44.25
2022-11-10T16:14:29.495Z,42.75
2022-11-10T16:20:05.803Z,54.50
2022-11-10T16:22:40.690Z,72.75
2022-11-10T16:25:20.524Z,74.50
2022-11-10T16:27:52.502Z,67.25
2022-11-10T16:30:31.198Z,80.75
2022-11-10T16:33:05.875Z,75.50
2022-11-10T16:35:43.429Z,72.25
2022-11-10T16:38:37.296Z,72.25
2022-11-10T16:41:11.077Z,64.25
2022-11-10T16:43:49.748Z,63.50
2022-11-10T16:46:39.514Z,58.50
2022-11-10T16:49:45.572Z,54.00
2022-11-10T16:52:44.245Z,57.50
2022-11-10T16:55:24.026Z,65.00
2022-11-10T16:58:10.256Z,66.25
2022-11-10T17:03:44.146Z,117.50
2022-11-10T17:06:23.371Z,87.25
2022-11-10T17:08:57.427Z,84.50
2022-11-10T17:11:38.137Z,56.25
2022-11-10T17:17:18.780Z,49.00
2022-11-10T17:23:32.397Z,45.00
2022-11-10T17:25:56.890Z,68.00
2022-11-10T17:28:47.888Z,81.50
2022-11-10T17:31:23.552Z,54.25
2022-11-10T17:33:58.614Z,47.00
2022-11-10T17:36:29.662Z,45.75
2022-11-10T17:39:03.355Z,44.25
2022-11-10T17:41:39.222Z,49.25
2022-11-10T17:44:21.216Z,40.75
2022-11-10T17:46:54.863Z,41.50
2022-11-10T17:49:47.220Z,44.00
2022-11-10T17:52:13.675Z,133.50
2022-11-10T17:54:46.039Z,44.25
2022-11-10T17:57:16.946Z,54.75
2022-11-10T17:59:49.968Z,38.75
2022-11-10T18:02:21.471Z,49.25
2022-11-10T18:04:51.884Z,45.25
2022-11-10T18:07:23.067Z,41.75
2022-11-10T18:09:54.750Z,43.50
2022-11-10T18:12:29.326Z,45.75
2022-11-10T18:15:01.639Z,32.50
2022-11-10T18:17:35.959Z,44.75
2022-11-10T18:20:06.764Z,45.00
2022-11-10T18:22:42.951Z,44.50
2022-11-10T18:25:13.608Z,47.00
2022-11-10T18:28:07.404Z,44.00
2022-11-10T18:30:39.818Z,44.25
2022-11-10T18:33:13.035Z,41.00
2022-11-10T18:35:44.678Z,45.25
2022-11-10T18:38:17.261Z,43.00
2022-11-10T18:40:50.177Z,45.25
2022-11-10T18:43:20.715Z,48.75
2022-11-10T18:45:56.006Z,46.00
2022-11-10T18:48:30.257Z,47.50
2022-11-10T18:51:10.676Z,47.50
2022-11-10T18:53:56.063Z,46.75
2022-11-10T18:56:30.359Z,46.75
2022-11-10T18:59:01.024Z,49.25
2022-11-10T19:01:33.291Z,46.25
2022-11-10T19:04:05.961Z,45.00
2022-11-10T19:06:39.994Z,50.75
2022-11-10T19:09:12.271Z,47.75
2022-11-10T19:11:42.595Z,46.25
2022-11-10T19:14:13.528Z,49.75
2022-11-10T19:16:44.625Z,50.25
2022-11-10T19:19:35.303Z,46.75
2022-11-10T19:22:05.585Z,55.25
2022-11-10T19:25:00.836Z,52.75
2022-11-10T19:27:21.652Z,52.25
2022-11-10T19:29:52.213Z,48.00
2022-11-10T19:32:25.177Z,56.50
2022-11-10T19:34:59.397Z,56.00
2022-11-10T19:37:34.863Z,55.00
2022-11-10T19:40:12.463Z,53.00
2022-11-10T19:42:49.169Z,52.50
2022-11-10T19:45:26.375Z,55.50
2022-11-10T19:47:58.062Z,52.00
2022-11-10T19:50:31.388Z,52.50
2022-11-10T19:56:19.859Z,53.50
2022-11-10T19:58:53.514Z,55.25
2022-11-10T20:01:25.226Z,53.50
2022-11-10T20:04:02.078Z,50.00
2022-11-10T20:06:54.674Z,48.00
2022-11-10T20:09:42.364Z,52.00
2022-11-10T20:12:14.315Z,50.25
2022-11-10T20:14:49.052Z,57.00
2022-11-10T20:17:31.529Z,52.00
2022-11-10T20:20:04.452Z,58.25
2022-11-10T20:25:48.664Z,57.50
2022-11-10T20:28:19.503Z,57.75
2022-11-10T20:30:55.086Z,57.00
2022-11-10T20:33:30.125Z,53.75
2022-11-10T20:36:10.430Z,52.25
2022-11-10T20:38:47.448Z,58.00
2022-11-10T20:41:25.126Z,56.25
2022-11-10T20:44:04.441Z,55.00
2022-11-10T20:46:54.068Z,57.25
2022-11-10T20:49:14.729Z,60.75
2022-11-10T20:51:48.076Z,62.75
2022-11-10T20:54:31.687Z,59.25
2022-11-10T20:57:02.389Z,57.00
2022-11-10T20:59:37.944Z,57.25
2022-11-10T21:02:12.650Z,55.50
2022-11-10T21:04:43.620Z,58.50
2022-11-10T21:07:14.078Z,59.00
2022-11-10T21:09:46.076Z,59.50
2022-11-10T21:12:18.855Z,61.25
2022-11-10T21:14:49.045Z,61.25
2022-11-10T21:17:21.823Z,49.25
2022-11-10T21:19:56.314Z,57.50
2022-11-10T21:22:33.295Z,54.25
2022-11-10T21:25:26.114Z,51.00
2022-11-10T21:27:57.787Z,51.75
2022-11-10T21:30:29.667Z,58.00
2022-11-10T21:33:11.103Z,55.25
2022-11-10T21:35:41.387Z,56.25
2022-11-10T21:38:13.000Z,54.50
2022-11-10T21:40:43.332Z,55.50
2022-11-10T21:43:15.052Z,56.50
2022-11-10T21:45:45.304Z,57.00
2022-11-10T21:48:15.674Z,50.50
2022-11-10T21:50:46.936Z,54.50
2022-11-10T21:53:17.584Z,52.00
2022-11-10T21:55:50.665Z,56.25
2022-11-10T21:58:20.876Z,58.25
2022-11-10T22:00:52.177Z,57.25
2022-11-10T22:03:22.850Z,54.50
2022-11-10T22:05:58.920Z,60.00
2022-11-10T22:08:33.983Z,37.50
2022-11-10T22:11:16.569Z,51.00
2022-11-10T22:13:49.693Z,54.75
2022-11-10T22:16:25.661Z,51.50
2022-11-10T22:19:07.881Z,56.50
2022-11-10T22:21:41.073Z,53.50
2022-11-10T22:24:11.360Z,54.75
2022-11-10T22:26:41.761Z,58.00
2022-11-10T22:29:24.272Z,49.50
2022-11-10T22:31:54.126Z,57.50
2022-11-10T22:34:29.169Z,60.50
2022-11-10T22:37:00.323Z,59.00
2022-11-10T22:39:32.412Z,63.75
2022-11-10T22:42:05.782Z,50.00
2022-11-10T22:44:45.760Z,59.00
2022-11-10T22:47:16.111Z,59.50
2022-11-10T22:49:47.025Z,59.50
2022-11-10T22:52:20.702Z,57.50
2022-11-10T22:54:51.679Z,59.50
2022-11-10T23:00:21.592Z,60.75
2022-11-10T23:03:00.481Z,57.75
2022-11-10T23:05:38.050Z,53.50
2022-11-10T23:08:11.468Z,59.00
2022-11-10T23:10:49.628Z,59.25
2022-11-10T23:13:32.201Z,55.00
2022-11-10T23:16:08.407Z,56.50
2022-11-10T23:18:43.118Z,56.75
2022-11-10T23:21:16.964Z,59.00
2022-11-10T23:23:52.291Z,58.50
2022-11-10T23:26:27.819Z,59.25
2022-11-10T23:28:58.210Z,54.75
2022-11-10T23:31:28.737Z,61.25
2022-11-10T23:34:03.105Z,46.75
2022-11-10T23:36:33.763Z,60.25
2022-11-10T23:39:04.832Z,61.25
2022-11-10T23:41:35.175Z,64.50
2022-11-10T23:44:05.565Z,60.50
2022-11-10T23:46:36.377Z,65.50
2022-11-10T23:49:06.638Z,64.50
2022-11-10T23:51:37.802Z,61.25
2022-11-10T23:54:08.140Z,58.50
2022-11-10T23:56:39.316Z,48.25
2022-11-10T23:59:09.625Z,59.00
